1990 BESSI (1990102S11092)


On this page: IBTrACS data - Map and Plots - Positions - Intensities - Original source data

Summary

Start Apr 11
End Apr 18
Basin SI
LMI 47 kt
Sources jtwc_sh
bom
neumann
In WMO? Yes
Previous storm 1990 HANTA (SI)
Previous in basin 1990 HANTA (SI)
Concurrent storms 1990 HANTA (SI)
1990 BESSI (SI)
1990 MISSING (NI)
Next in basin Missing
Next storm 1990 MISSING (NI)

top of page IBTrACS Data: File Access

top of page HURSAT Data: File Access

Image of storm

top of page Plots:

Map of storm track will not appear if FTP is down
Time series of cyclone Maximum Sustained Wind will not appear if FTP is down
Time series of cyclone Minimum Central Pressure will not appear if FTP is down

top of page Track Data:Position

jtwc_sh bom neumann
Date Lat Lon Lat Lon Lat Lon
1990-04-11 18:00:00 -11.0 92.0 -11.0 92.0
1990-04-12 00:00:00 -10.3 91.5 -10.3 91.5
1990-04-12 06:00:00 -9.9 91.0 -9.9 91.0
1990-04-12 12:00:00 -9.6 90.2 -9.6 90.2
1990-04-12 18:00:00 -9.6 89.5 -9.6 89.5
1990-04-13 00:00:00 -9.8 88.8 -11.0 89.4 -9.8 88.8
1990-04-13 06:00:00 -10.3 88.4 -11.4 89.3 -10.3 88.4
1990-04-13 12:00:00 -11.3 88.2 -11.8 89.3 -11.3 88.2
1990-04-13 18:00:00 -12.3 88.5 -12.3 89.3 -12.3 88.5
1990-04-14 00:00:00 -13.0 88.7 -12.8 89.3 -13.0 88.7
1990-04-14 06:00:00 -13.3 88.8 -13.3 89.3 -13.3 88.8
1990-04-14 12:00:00 -13.7 88.7 -13.8 89.3 -13.7 88.7
1990-04-14 18:00:00 -14.1 88.6 -14.4 89.4 -14.1 88.6
1990-04-15 00:00:00 -14.5 89.1 -15.0 89.7 -14.5 89.1
1990-04-15 06:00:00 -15.6 90.1 -15.5 90.4 -15.6 90.1
1990-04-15 12:00:00 -16.6 91.1 -16.2 90.8 -16.6 91.1
1990-04-15 18:00:00 -17.0 91.4 -16.8 91.3 -17.0 91.4
1990-04-16 00:00:00 -17.3 91.7 -17.4 91.6 -17.3 91.7
1990-04-16 06:00:00 -17.7 92.0 -18.0 91.9 -17.7 92.0
1990-04-16 12:00:00 -18.0 92.2 -18.7 92.2 -18.0 92.2
1990-04-16 18:00:00 -18.4 92.6 -19.3 92.6 -18.4 92.6
1990-04-17 00:00:00 -18.9 92.9 -20.0 93.0 -18.9 92.9
1990-04-17 06:00:00 -20.7 93.4
1990-04-17 12:00:00 -21.7 94.2
1990-04-17 18:00:00 -22.7 94.9
jtwc_sh bom neumann
1990-04-18 00:00:00 -24.0 96.0
1990-04-18 06:00:00 -25.5 97.3

top of pageTrack Data:Intensity

jtwc_sh bom neumann
Date Wind Pres Wind Pres Wind Pres
1990-04-11 18:00:00 20. 20.
1990-04-12 00:00:00 20. 20.
1990-04-12 06:00:00 20. 20.
1990-04-12 12:00:00 20. 20.
1990-04-12 18:00:00 20. 20.
1990-04-13 00:00:00 25. 35. 998. 25.
1990-04-13 06:00:00 25. 35. 998. 25.
1990-04-13 12:00:00 25. 35. 998. 25.
1990-04-13 18:00:00 25. 35. 998. 25.
1990-04-14 00:00:00 25. 35. 998. 25.
1990-04-14 06:00:00 30. 35. 998. 30.
1990-04-14 12:00:00 30. 35. 998. 30.
1990-04-14 18:00:00 30. 35. 998. 30.
1990-04-15 00:00:00 30. 39. 995. 30.
1990-04-15 06:00:00 35. 41. 993. 35.
1990-04-15 12:00:00 40. 47. 990. 40.
1990-04-15 18:00:00 40. 47. 990. 40.
1990-04-16 00:00:00 40. 47. 990. 40.
1990-04-16 06:00:00 40. 43. 992. 40.
1990-04-16 12:00:00 40. 41. 993. 40.
1990-04-16 18:00:00 35. 41. 994. 35.
1990-04-17 00:00:00 35. 39. 995. 35.
1990-04-17 06:00:00 35. 998.
1990-04-17 12:00:00 31. 1000.
1990-04-17 18:00:00 27. 1002.
jtwc_sh bom neumann
1990-04-18 00:00:00 25. 1004.
1990-04-18 06:00:00 1006.

top of page Links to source data

Source Source file Format
jtwc_sh bsh281990.txt ATCF
bom IDCKMSTM0S.csv:Line=17999:BESSI CSV file (from Excel file)
neumann tracks.sh:Storm=897:BESSI:BSH281990:JTWC&BM792 HURDAT